sensor_id;sensor_type;location;lat;lon;timestamp;P1;durP1;ratioP1;P2;durP2;ratioP2
38318;SDS011;24121;53.536;10.224;2023-06-14T06:57:21;5.03;;;2.83;;
38318;SDS011;24121;53.536;10.224;2023-06-14T06:59:47;4.10;;;2.40;;
38318;SDS011;24121;53.536;10.224;2023-06-14T07:02:13;3.28;;;2.50;;
38318;SDS011;24121;53.536;10.224;2023-06-14T07:04:38;6.38;;;2.50;;
38318;SDS011;24121;53.536;10.224;2023-06-14T07:07:04;3.80;;;2.80;;
38318;SDS011;24121;53.536;10.224;2023-06-14T07:09:29;4.70;;;2.35;;
38318;SDS011;24121;53.536;10.224;2023-06-14T07:11:54;4.95;;;2.55;;
38318;SDS011;24121;53.536;10.224;2023-06-14T07:14:20;4.10;;;2.13;;
38318;SDS011;24121;53.536;10.224;2023-06-14T07:16:47;5.80;;;2.25;;
38318;SDS011;24121;53.536;10.224;2023-06-14T07:19:14;6.57;;;2.30;;
38318;SDS011;24121;53.536;10.224;2023-06-14T07:21:39;2.63;;;2.42;;
38318;SDS011;24121;53.536;10.224;2023-06-14T07:24:05;3.03;;;2.20;;
38318;SDS011;24121;53.536;10.224;2023-06-14T07:26:31;5.18;;;2.40;;
38318;SDS011;24121;53.536;10.224;2023-06-14T07:28:57;10.93;;;3.15;;
38318;SDS011;24121;53.536;10.224;2023-06-14T07:31:22;3.70;;;2.40;;
38318;SDS011;24121;53.536;10.224;2023-06-14T07:33:47;4.90;;;2.55;;
38318;SDS011;24121;53.536;10.224;2023-06-14T07:36:13;4.95;;;2.60;;
38318;SDS011;24121;53.536;10.224;2023-06-14T07:38:38;5.63;;;2.50;;
38318;SDS011;24121;53.536;10.224;2023-06-14T07:41:05;6.28;;;2.50;;
38318;SDS011;24121;53.536;10.224;2023-06-14T07:43:30;3.15;;;2.75;;
38318;SDS011;24121;53.536;10.224;2023-06-14T07:45:56;4.47;;;2.28;;
38318;SDS011;24121;53.536;10.224;2023-06-14T07:48:22;4.72;;;2.42;;
38318;SDS011;24121;53.536;10.224;2023-06-14T07:50:47;4.47;;;2.47;;
38318;SDS011;24121;53.536;10.224;2023-06-14T07:53:12;3.20;;;2.45;;
38318;SDS011;24121;53.536;10.224;2023-06-14T07:55:38;4.60;;;2.60;;
38318;SDS011;24121;53.536;10.224;2023-06-14T07:58:04;4.32;;;2.35;;
38318;SDS011;24121;53.536;10.224;2023-06-14T08:00:31;2.92;;;2.20;;
38318;SDS011;24121;53.536;10.224;2023-06-14T08:02:56;3.60;;;2.40;;
38318;SDS011;24121;53.536;10.224;2023-06-14T08:05:23;6.35;;;2.50;;
38318;SDS011;24121;53.536;10.224;2023-06-14T08:07:49;7.63;;;2.50;;
38318;SDS011;24121;53.536;10.224;2023-06-14T08:10:14;5.47;;;2.58;;
38318;SDS011;24121;53.536;10.224;2023-06-14T08:12:40;4.93;;;2.40;;
38318;SDS011;24121;53.536;10.224;2023-06-14T08:15:05;4.43;;;2.35;;
38318;SDS011;24121;53.536;10.224;2023-06-14T08:17:31;3.15;;;2.38;;
38318;SDS011;24121;53.536;10.224;2023-06-14T08:19:56;5.88;;;2.40;;
38318;SDS011;24121;53.536;10.224;2023-06-14T08:22:22;4.63;;;2.60;;
38318;SDS011;24121;53.536;10.224;2023-06-14T08:24:49;9.20;;;2.85;;
38318;SDS011;24121;53.536;10.224;2023-06-14T08:27:14;5.32;;;2.58;;
38318;SDS011;24121;53.536;10.224;2023-06-14T08:29:40;6.32;;;2.42;;
38318;SDS011;24121;53.536;10.224;2023-06-14T08:32:06;4.40;;;2.50;;
38318;SDS011;24121;53.536;10.224;2023-06-14T08:34:32;6.00;;;2.72;;
38318;SDS011;24121;53.536;10.224;2023-06-14T08:36:57;5.07;;;2.75;;
38318;SDS011;24121;53.536;10.224;2023-06-14T08:39:22;5.97;;;2.35;;
38318;SDS011;24121;53.536;10.224;2023-06-14T08:41:48;5.03;;;2.80;;
38318;SDS011;24121;53.536;10.224;2023-06-14T08:44:14;4.50;;;2.50;;
38318;SDS011;24121;53.536;10.224;2023-06-14T08:46:43;5.70;;;2.97;;
38318;SDS011;24121;53.536;10.224;2023-06-14T08:49:09;8.65;;;2.80;;
38318;SDS011;24121;53.536;10.224;2023-06-14T08:51:36;6.45;;;2.60;;
38318;SDS011;24121;53.536;10.224;2023-06-14T08:54:02;5.38;;;2.78;;
38318;SDS011;24121;53.536;10.224;2023-06-14T08:56:28;5.57;;;2.65;;
38318;SDS011;24121;53.536;10.224;2023-06-14T08:58:54;4.63;;;2.50;;
38318;SDS011;24121;53.536;10.224;2023-06-14T09:01:21;8.48;;;2.80;;
38318;SDS011;24121;53.536;10.224;2023-06-14T09:03:48;4.55;;;2.50;;
38318;SDS011;24121;53.536;10.224;2023-06-14T09:06:14;4.43;;;2.55;;
38318;SDS011;24121;53.536;10.224;2023-06-14T09:08:42;5.18;;;2.45;;
38318;SDS011;24121;53.536;10.224;2023-06-14T09:11:08;5.80;;;3.00;;
38318;SDS011;24121;53.536;10.224;2023-06-14T09:13:33;6.45;;;2.92;;
38318;SDS011;24121;53.536;10.224;2023-06-14T09:15:59;7.72;;;3.20;;
38318;SDS011;24121;53.536;10.224;2023-06-14T09:21:10;5.00;;;2.55;;
38318;SDS011;24121;53.536;10.224;2023-06-14T09:23:39;5.03;;;2.90;;
38318;SDS011;24121;53.536;10.224;2023-06-14T09:26:07;5.03;;;2.97;;
38318;SDS011;24121;53.536;10.224;2023-06-14T09:28:37;7.40;;;2.95;;
38318;SDS011;24121;53.536;10.224;2023-06-14T09:31:06;6.18;;;2.75;;
38318;SDS011;24121;53.536;10.224;2023-06-14T09:33:33;8.85;;;3.17;;
38318;SDS011;24121;53.536;10.224;2023-06-14T09:35:59;6.05;;;2.65;;
38318;SDS011;24121;53.536;10.224;2023-06-14T09:38:24;7.75;;;2.75;;
38318;SDS011;24121;53.536;10.224;2023-06-14T09:40:49;15.07;;;2.90;;
38318;SDS011;24121;53.536;10.224;2023-06-14T09:43:15;15.50;;;3.92;;
38318;SDS011;24121;53.536;10.224;2023-06-14T09:45:41;8.48;;;3.42;;
38318;SDS011;24121;53.536;10.224;2023-06-14T09:48:10;9.85;;;3.20;;
38318;SDS011;24121;53.536;10.224;2023-06-14T09:50:36;7.55;;;3.30;;
38318;SDS011;24121;53.536;10.224;2023-06-14T09:53:03;25.13;;;3.97;;
38318;SDS011;24121;53.536;10.224;2023-06-14T09:55:31;5.03;;;2.78;;
38318;SDS011;24121;53.536;10.224;2023-06-14T09:58:04;6.30;;;3.47;;
38318;SDS011;24121;53.536;10.224;2023-06-14T10:00:31;8.52;;;2.80;;
38318;SDS011;24121;53.536;10.224;2023-06-14T10:02:59;15.02;;;3.67;;
38318;SDS011;24121;53.536;10.224;2023-06-14T10:05:26;15.00;;;3.35;;
38318;SDS011;24121;53.536;10.224;2023-06-14T10:07:56;7.82;;;3.13;;
38318;SDS011;24121;53.536;10.224;2023-06-14T10:10:25;16.65;;;3.53;;
38318;SDS011;24121;53.536;10.224;2023-06-14T10:12:50;7.10;;;3.05;;
38318;SDS011;24121;53.536;10.224;2023-06-14T10:15:18;10.05;;;3.30;;
38318;SDS011;24121;53.536;10.224;2023-06-14T10:17:47;7.10;;;3.00;;
38318;SDS011;24121;53.536;10.224;2023-06-14T10:22:51;4.97;;;3.35;;
38318;SDS011;24121;53.536;10.224;2023-06-14T10:25:27;5.63;;;3.00;;
38318;SDS011;24121;53.536;10.224;2023-06-14T10:33:36;6.38;;;3.15;;
38318;SDS011;24121;53.536;10.224;2023-06-14T10:36:08;4.88;;;2.75;;
38318;SDS011;24121;53.536;10.224;2023-06-14T10:38:36;4.97;;;3.00;;
38318;SDS011;24121;53.536;10.224;2023-06-14T10:41:02;4.18;;;2.90;;
38318;SDS011;24121;53.536;10.224;2023-06-14T10:43:29;7.43;;;3.80;;
38318;SDS011;24121;53.536;10.224;2023-06-14T10:48:43;6.10;;;3.03;;
38318;SDS011;24121;53.536;10.224;2023-06-14T10:51:18;4.38;;;2.78;;
38318;SDS011;24121;53.536;10.224;2023-06-14T10:53:46;3.65;;;3.10;;
38318;SDS011;24121;53.536;10.224;2023-06-14T10:59:16;6.40;;;2.80;;
38318;SDS011;24121;53.536;10.224;2023-06-14T11:04:46;7.53;;;3.30;;
38318;SDS011;24121;53.536;10.224;2023-06-14T11:13:03;6.00;;;2.80;;
38318;SDS011;24121;53.536;10.224;2023-06-14T11:15:32;6.18;;;3.17;;
38318;SDS011;24121;53.536;10.224;2023-06-14T11:18:01;7.70;;;3.10;;
38318;SDS011;24121;53.536;10.224;2023-06-14T11:20:29;6.00;;;2.63;;
38318;SDS011;24121;53.536;10.224;2023-06-14T11:22:55;7.97;;;3.03;;
38318;SDS011;24121;53.536;10.224;2023-06-14T11:25:20;5.55;;;3.03;;
38318;SDS011;24121;53.536;10.224;2023-06-14T11:27:46;9.43;;;3.30;;
38318;SDS011;24121;53.536;10.224;2023-06-14T11:30:12;5.80;;;2.80;;
38318;SDS011;24121;53.536;10.224;2023-06-14T11:32:38;5.85;;;3.17;;
38318;SDS011;24121;53.536;10.224;2023-06-14T11:35:04;5.57;;;2.83;;
38318;SDS011;24121;53.536;10.224;2023-06-14T11:37:30;6.18;;;2.78;;
38318;SDS011;24121;53.536;10.224;2023-06-14T11:40:02;3.75;;;2.92;;
38318;SDS011;24121;53.536;10.224;2023-06-14T11:42:33;4.65;;;3.03;;
38318;SDS011;24121;53.536;10.224;2023-06-14T11:44:58;9.13;;;2.80;;
38318;SDS011;24121;53.536;10.224;2023-06-14T11:47:24;4.78;;;3.10;;
38318;SDS011;24121;53.536;10.224;2023-06-14T11:49:50;11.70;;;3.85;;
38318;SDS011;24121;53.536;10.224;2023-06-14T11:52:15;6.28;;;3.00;;
38318;SDS011;24121;53.536;10.224;2023-06-14T11:54:41;6.57;;;3.78;;
38318;SDS011;24121;53.536;10.224;2023-06-14T11:57:07;3.75;;;3.30;;
38318;SDS011;24121;53.536;10.224;2023-06-14T11:59:37;4.45;;;3.28;;
38318;SDS011;24121;53.536;10.224;2023-06-14T12:02:03;8.57;;;2.97;;
38318;SDS011;24121;53.536;10.224;2023-06-14T12:04:29;4.63;;;2.85;;
38318;SDS011;24121;53.536;10.224;2023-06-14T12:06:55;5.18;;;2.65;;
38318;SDS011;24121;53.536;10.224;2023-06-14T12:09:21;7.20;;;3.05;;
38318;SDS011;24121;53.536;10.224;2023-06-14T12:14:16;6.93;;;3.27;;
38318;SDS011;24121;53.536;10.224;2023-06-14T12:16:41;8.05;;;3.47;;
38318;SDS011;24121;53.536;10.224;2023-06-14T12:19:08;9.13;;;3.30;;
38318;SDS011;24121;53.536;10.224;2023-06-14T12:21:38;3.72;;;3.28;;
38318;SDS011;24121;53.536;10.224;2023-06-14T12:24:06;6.88;;;2.97;;
38318;SDS011;24121;53.536;10.224;2023-06-14T12:26:32;5.78;;;3.22;;
38318;SDS011;24121;53.536;10.224;2023-06-14T12:28:58;5.15;;;2.90;;
38318;SDS011;24121;53.536;10.224;2023-06-14T12:31:23;6.47;;;3.30;;
38318;SDS011;24121;53.536;10.224;2023-06-14T12:33:49;12.98;;;4.40;;
38318;SDS011;24121;53.536;10.224;2023-06-14T12:36:15;5.82;;;3.22;;
38318;SDS011;24121;53.536;10.224;2023-06-14T12:38:41;5.38;;;3.17;;
38318;SDS011;24121;53.536;10.224;2023-06-14T12:41:06;6.32;;;2.85;;
38318;SDS011;24121;53.536;10.224;2023-06-14T12:43:32;7.45;;;3.25;;
38318;SDS011;24121;53.536;10.224;2023-06-14T12:45:58;4.00;;;2.70;;
38318;SDS011;24121;53.536;10.224;2023-06-14T12:48:24;4.95;;;2.90;;
38318;SDS011;24121;53.536;10.224;2023-06-14T12:50:49;5.95;;;2.83;;
38318;SDS011;24121;53.536;10.224;2023-06-14T12:53:14;7.50;;;2.85;;
38318;SDS011;24121;53.536;10.224;2023-06-14T12:55:40;4.72;;;3.00;;
38318;SDS011;24121;53.536;10.224;2023-06-14T12:58:05;5.70;;;2.65;;
38318;SDS011;24121;53.536;10.224;2023-06-14T13:00:30;3.60;;;2.95;;
38318;SDS011;24121;53.536;10.224;2023-06-14T13:02:56;6.47;;;2.60;;
38318;SDS011;24121;53.536;10.224;2023-06-14T13:05:22;7.20;;;2.70;;
38318;SDS011;24121;53.536;10.224;2023-06-14T13:07:47;5.78;;;2.78;;
38318;SDS011;24121;53.536;10.224;2023-06-14T13:10:13;5.45;;;2.85;;
38318;SDS011;24121;53.536;10.224;2023-06-14T13:12:38;7.03;;;2.75;;
38318;SDS011;24121;53.536;10.224;2023-06-14T13:15:03;5.00;;;2.53;;
38318;SDS011;24121;53.536;10.224;2023-06-14T13:17:29;5.00;;;2.90;;
38318;SDS011;24121;53.536;10.224;2023-06-14T13:19:54;7.18;;;2.60;;
38318;SDS011;24121;53.536;10.224;2023-06-14T13:22:20;8.80;;;2.67;;
38318;SDS011;24121;53.536;10.224;2023-06-14T13:24:45;4.38;;;2.70;;
38318;SDS011;24121;53.536;10.224;2023-06-14T13:27:10;8.02;;;2.65;;
38318;SDS011;24121;53.536;10.224;2023-06-14T13:29:36;6.03;;;2.60;;
38318;SDS011;24121;53.536;10.224;2023-06-14T13:32:01;5.05;;;2.50;;
38318;SDS011;24121;53.536;10.224;2023-06-14T13:34:27;5.10;;;2.50;;
38318;SDS011;24121;53.536;10.224;2023-06-14T13:36:53;7.45;;;3.00;;
38318;SDS011;24121;53.536;10.224;2023-06-14T13:39:18;7.28;;;3.13;;
38318;SDS011;24121;53.536;10.224;2023-06-14T13:41:44;5.82;;;2.65;;
38318;SDS011;24121;53.536;10.224;2023-06-14T13:44:09;6.35;;;2.83;;
38318;SDS011;24121;53.536;10.224;2023-06-14T13:46:38;5.07;;;3.05;;
38318;SDS011;24121;53.536;10.224;2023-06-14T13:49:04;6.68;;;2.88;;
38318;SDS011;24121;53.536;10.224;2023-06-14T13:51:31;3.92;;;2.40;;
38318;SDS011;24121;53.536;10.224;2023-06-14T13:53:57;4.50;;;2.58;;
38318;SDS011;24121;53.536;10.224;2023-06-14T13:56:22;5.80;;;3.10;;
38318;SDS011;24121;53.536;10.224;2023-06-14T13:58:49;4.32;;;2.67;;
38318;SDS011;24121;53.536;10.224;2023-06-14T14:01:15;3.63;;;2.75;;
38318;SDS011;24121;53.536;10.224;2023-06-14T14:03:40;4.78;;;3.08;;
38318;SDS011;24121;53.536;10.224;2023-06-14T14:06:05;8.63;;;3.03;;
38318;SDS011;24121;53.536;10.224;2023-06-14T14:08:32;7.70;;;3.00;;
38318;SDS011;24121;53.536;10.224;2023-06-14T14:10:58;5.80;;;2.65;;
38318;SDS011;24121;53.536;10.224;2023-06-14T14:13:23;8.10;;;2.75;;
38318;SDS011;24121;53.536;10.224;2023-06-14T14:15:49;5.65;;;2.50;;
38318;SDS011;24121;53.536;10.224;2023-06-14T14:18:15;6.35;;;3.10;;
38318;SDS011;24121;53.536;10.224;2023-06-14T14:20:41;3.50;;;2.10;;
38318;SDS011;24121;53.536;10.224;2023-06-14T14:23:06;4.07;;;2.67;;
38318;SDS011;24121;53.536;10.224;2023-06-14T14:25:31;6.30;;;2.50;;
38318;SDS011;24121;53.536;10.224;2023-06-14T14:27:57;5.55;;;2.53;;
38318;SDS011;24121;53.536;10.224;2023-06-14T14:30:22;4.85;;;2.65;;
38318;SDS011;24121;53.536;10.224;2023-06-14T14:32:48;5.80;;;2.70;;
38318;SDS011;24121;53.536;10.224;2023-06-14T14:35:14;4.88;;;2.95;;
38318;SDS011;24121;53.536;10.224;2023-06-14T14:37:40;5.13;;;2.78;;
38318;SDS011;24121;53.536;10.224;2023-06-14T14:40:05;8.05;;;2.50;;
38318;SDS011;24121;53.536;10.224;2023-06-14T14:42:31;4.05;;;2.53;;
38318;SDS011;24121;53.536;10.224;2023-06-14T14:44:56;7.47;;;2.83;;
38318;SDS011;24121;53.536;10.224;2023-06-14T14:47:22;5.68;;;2.55;;
38318;SDS011;24121;53.536;10.224;2023-06-14T14:49:47;4.47;;;2.72;;
38318;SDS011;24121;53.536;10.224;2023-06-14T14:52:12;3.78;;;2.42;;
38318;SDS011;24121;53.536;10.224;2023-06-14T14:54:38;6.38;;;3.00;;
38318;SDS011;24121;53.536;10.224;2023-06-14T14:57:04;8.25;;;2.95;;
38318;SDS011;24121;53.536;10.224;2023-06-14T14:59:30;8.57;;;2.80;;
38318;SDS011;24121;53.536;10.224;2023-06-14T15:01:55;6.43;;;2.92;;
38318;SDS011;24121;53.536;10.224;2023-06-14T15:04:20;4.97;;;2.60;;
38318;SDS011;24121;53.536;10.224;2023-06-14T15:06:45;5.80;;;3.08;;
38318;SDS011;24121;53.536;10.224;2023-06-14T15:09:11;3.95;;;2.28;;
38318;SDS011;24121;53.536;10.224;2023-06-14T15:11:36;8.73;;;2.80;;
38318;SDS011;24121;53.536;10.224;2023-06-14T15:14:02;5.00;;;2.75;;
38318;SDS011;24121;53.536;10.224;2023-06-14T15:16:27;6.50;;;2.50;;
38318;SDS011;24121;53.536;10.224;2023-06-14T15:18:52;6.55;;;2.42;;
38318;SDS011;24121;53.536;10.224;2023-06-14T15:21:17;3.45;;;2.40;;
38318;SDS011;24121;53.536;10.224;2023-06-14T15:23:45;4.45;;;2.70;;
38318;SDS011;24121;53.536;10.224;2023-06-14T15:26:10;5.55;;;2.78;;
38318;SDS011;24121;53.536;10.224;2023-06-14T15:28:36;5.80;;;2.78;;
38318;SDS011;24121;53.536;10.224;2023-06-14T15:31:01;7.13;;;2.88;;
38318;SDS011;24121;53.536;10.224;2023-06-14T15:33:26;9.75;;;2.53;;
38318;SDS011;24121;53.536;10.224;2023-06-14T15:35:52;6.00;;;2.55;;
38318;SDS011;24121;53.536;10.224;2023-06-14T15:38:17;4.00;;;3.08;;
38318;SDS011;24121;53.536;10.224;2023-06-14T15:40:43;4.25;;;2.58;;
38318;SDS011;24121;53.536;10.224;2023-06-14T15:43:08;5.10;;;2.47;;
38318;SDS011;24121;53.536;10.224;2023-06-14T15:45:33;3.08;;;2.53;;
38318;SDS011;24121;53.536;10.224;2023-06-14T15:47:59;5.03;;;2.30;;
38318;SDS011;24121;53.536;10.224;2023-06-14T15:50:24;7.18;;;2.80;;
38318;SDS011;24121;53.536;10.224;2023-06-14T15:52:50;9.15;;;2.60;;
38318;SDS011;24121;53.536;10.224;2023-06-14T15:55:15;4.75;;;2.60;;
38318;SDS011;24121;53.536;10.224;2023-06-14T15:57:41;3.97;;;2.53;;
38318;SDS011;24121;53.536;10.224;2023-06-14T16:00:06;11.52;;;2.40;;
38318;SDS011;24121;53.536;10.224;2023-06-14T16:02:33;8.40;;;2.88;;
38318;SDS011;24121;53.536;10.224;2023-06-14T16:04:58;4.90;;;2.30;;
38318;SDS011;24121;53.536;10.224;2023-06-14T16:07:23;8.68;;;2.50;;
38318;SDS011;24121;53.536;10.224;2023-06-14T16:09:49;5.10;;;2.80;;
38318;SDS011;24121;53.536;10.224;2023-06-14T16:12:14;7.45;;;2.60;;
38318;SDS011;24121;53.536;10.224;2023-06-14T16:14:39;7.03;;;2.47;;
38318;SDS011;24121;53.536;10.224;2023-06-14T16:17:05;5.03;;;2.75;;
38318;SDS011;24121;53.536;10.224;2023-06-14T16:19:30;6.07;;;2.50;;
38318;SDS011;24121;53.536;10.224;2023-06-14T16:21:55;4.65;;;2.30;;
38318;SDS011;24121;53.536;10.224;2023-06-14T16:24:21;5.85;;;2.30;;
38318;SDS011;24121;53.536;10.224;2023-06-14T16:26:46;7.97;;;2.72;;
38318;SDS011;24121;53.536;10.224;2023-06-14T16:29:11;5.80;;;2.20;;
38318;SDS011;24121;53.536;10.224;2023-06-14T16:31:37;6.30;;;2.60;;
38318;SDS011;24121;53.536;10.224;2023-06-14T16:34:02;4.57;;;2.28;;
38318;SDS011;24121;53.536;10.224;2023-06-14T16:36:29;3.95;;;2.50;;
38318;SDS011;24121;53.536;10.224;2023-06-14T16:38:55;5.28;;;2.60;;
38318;SDS011;24121;53.536;10.224;2023-06-14T16:41:20;4.63;;;2.22;;
38318;SDS011;24121;53.536;10.224;2023-06-14T16:43:45;3.58;;;2.60;;
38318;SDS011;24121;53.536;10.224;2023-06-14T16:46:11;5.68;;;2.38;;
38318;SDS011;24121;53.536;10.224;2023-06-14T16:48:38;5.22;;;2.45;;
38318;SDS011;24121;53.536;10.224;2023-06-14T16:51:03;3.55;;;2.45;;
38318;SDS011;24121;53.536;10.224;2023-06-14T16:53:28;4.45;;;2.70;;
38318;SDS011;24121;53.536;10.224;2023-06-14T16:55:54;3.25;;;2.20;;
38318;SDS011;24121;53.536;10.224;2023-06-14T16:58:20;5.65;;;2.45;;
38318;SDS011;24121;53.536;10.224;2023-06-14T17:00:45;3.42;;;2.28;;
38318;SDS011;24121;53.536;10.224;2023-06-14T17:03:11;3.92;;;2.30;;
38318;SDS011;24121;53.536;10.224;2023-06-14T17:05:36;3.85;;;2.35;;
38318;SDS011;24121;53.536;10.224;2023-06-14T17:08:01;6.85;;;2.20;;
38318;SDS011;24121;53.536;10.224;2023-06-14T17:10:27;3.22;;;2.45;;
38318;SDS011;24121;53.536;10.224;2023-06-14T17:12:53;4.50;;;2.10;;
38318;SDS011;24121;53.536;10.224;2023-06-14T17:15:18;3.35;;;2.13;;
38318;SDS011;24121;53.536;10.224;2023-06-14T17:17:43;3.08;;;1.92;;
38318;SDS011;24121;53.536;10.224;2023-06-14T17:20:09;4.07;;;2.20;;
38318;SDS011;24121;53.536;10.224;2023-06-14T17:22:35;5.07;;;2.40;;
38318;SDS011;24121;53.536;10.224;2023-06-14T17:25:00;5.55;;;2.35;;
38318;SDS011;24121;53.536;10.224;2023-06-14T17:27:25;3.92;;;2.42;;
38318;SDS011;24121;53.536;10.224;2023-06-14T17:29:51;3.00;;;1.70;;
38318;SDS011;24121;53.536;10.224;2023-06-14T17:32:16;8.18;;;2.25;;
38318;SDS011;24121;53.536;10.224;2023-06-14T17:34:41;4.32;;;1.95;;
38318;SDS011;24121;53.536;10.224;2023-06-14T17:37:06;3.75;;;2.00;;
38318;SDS011;24121;53.536;10.224;2023-06-14T17:39:32;3.78;;;1.98;;
38318;SDS011;24121;53.536;10.224;2023-06-14T17:41:57;5.05;;;2.08;;
38318;SDS011;24121;53.536;10.224;2023-06-14T17:44:23;4.85;;;2.30;;
38318;SDS011;24121;53.536;10.224;2023-06-14T17:46:48;5.05;;;2.22;;
38318;SDS011;24121;53.536;10.224;2023-06-14T17:49:13;4.72;;;2.47;;
38318;SDS011;24121;53.536;10.224;2023-06-14T17:51:39;5.82;;;2.00;;
38318;SDS011;24121;53.536;10.224;2023-06-14T17:54:04;4.68;;;2.10;;
38318;SDS011;24121;53.536;10.224;2023-06-14T17:56:30;6.10;;;2.20;;
38318;SDS011;24121;53.536;10.224;2023-06-14T17:58:56;3.42;;;2.00;;
38318;SDS011;24121;53.536;10.224;2023-06-14T18:01:22;3.47;;;1.90;;
38318;SDS011;24121;53.536;10.224;2023-06-14T18:03:48;5.90;;;2.28;;
38318;SDS011;24121;53.536;10.224;2023-06-14T18:06:14;4.28;;;1.83;;
38318;SDS011;24121;53.536;10.224;2023-06-14T18:08:39;3.67;;;2.10;;
38318;SDS011;24121;53.536;10.224;2023-06-14T18:11:04;7.72;;;2.42;;
38318;SDS011;24121;53.536;10.224;2023-06-14T18:13:30;5.32;;;2.22;;
38318;SDS011;24121;53.536;10.224;2023-06-14T18:15:57;4.90;;;2.10;;
38318;SDS011;24121;53.536;10.224;2023-06-14T18:18:23;5.85;;;2.10;;
38318;SDS011;24121;53.536;10.224;2023-06-14T18:20:48;3.55;;;2.40;;
38318;SDS011;24121;53.536;10.224;2023-06-14T18:23:13;4.07;;;2.05;;
38318;SDS011;24121;53.536;10.224;2023-06-14T18:25:38;7.65;;;2.05;;
38318;SDS011;24121;53.536;10.224;2023-06-14T18:28:04;4.15;;;2.10;;
38318;SDS011;24121;53.536;10.224;2023-06-14T18:30:29;4.82;;;1.95;;
38318;SDS011;24121;53.536;10.224;2023-06-14T18:32:56;3.25;;;2.00;;
38318;SDS011;24121;53.536;10.224;2023-06-14T18:35:22;6.72;;;1.88;;
38318;SDS011;24121;53.536;10.224;2023-06-14T18:37:47;3.28;;;1.70;;
38318;SDS011;24121;53.536;10.224;2023-06-14T18:40:13;2.38;;;1.52;;
38318;SDS011;24121;53.536;10.224;2023-06-14T18:42:38;5.32;;;2.03;;
38318;SDS011;24121;53.536;10.224;2023-06-14T18:45:04;3.95;;;2.03;;
38318;SDS011;24121;53.536;10.224;2023-06-14T18:47:30;4.35;;;2.00;;
38318;SDS011;24121;53.536;10.224;2023-06-14T18:49:55;3.78;;;1.90;;
38318;SDS011;24121;53.536;10.224;2023-06-14T18:52:20;2.17;;;1.83;;
38318;SDS011;24121;53.536;10.224;2023-06-14T18:54:46;5.45;;;2.25;;
38318;SDS011;24121;53.536;10.224;2023-06-14T18:57:11;3.92;;;1.80;;
38318;SDS011;24121;53.536;10.224;2023-06-14T18:59:36;5.50;;;2.05;;
38318;SDS011;24121;53.536;10.224;2023-06-14T19:02:02;5.65;;;2.17;;
38318;SDS011;24121;53.536;10.224;2023-06-14T19:04:27;5.43;;;2.40;;
38318;SDS011;24121;53.536;10.224;2023-06-14T19:06:53;5.00;;;2.15;;
38318;SDS011;24121;53.536;10.224;2023-06-14T19:09:18;5.15;;;2.15;;
38318;SDS011;24121;53.536;10.224;2023-06-14T19:11:43;7.00;;;2.22;;
38318;SDS011;24121;53.536;10.224;2023-06-14T19:14:10;4.10;;;2.00;;
38318;SDS011;24121;53.536;10.224;2023-06-14T19:16:35;8.75;;;2.10;;
38318;SDS011;24121;53.536;10.224;2023-06-14T19:19:01;4.38;;;1.83;;
38318;SDS011;24121;53.536;10.224;2023-06-14T19:21:26;3.92;;;2.15;;
38318;SDS011;24121;53.536;10.224;2023-06-14T19:23:51;4.15;;;2.30;;
38318;SDS011;24121;53.536;10.224;2023-06-14T19:26:18;3.20;;;2.13;;
38318;SDS011;24121;53.536;10.224;2023-06-14T19:28:44;2.92;;;1.90;;
38318;SDS011;24121;53.536;10.224;2023-06-14T19:31:09;4.43;;;2.10;;
38318;SDS011;24121;53.536;10.224;2023-06-14T19:33:36;2.83;;;1.80;;
38318;SDS011;24121;53.536;10.224;2023-06-14T19:36:01;3.90;;;2.10;;
38318;SDS011;24121;53.536;10.224;2023-06-14T19:38:26;2.75;;;2.00;;
38318;SDS011;24121;53.536;10.224;2023-06-14T19:40:52;3.75;;;1.98;;
38318;SDS011;24121;53.536;10.224;2023-06-14T19:43:17;2.90;;;2.13;;
38318;SDS011;24121;53.536;10.224;2023-06-14T19:45:42;4.75;;;2.10;;
38318;SDS011;24121;53.536;10.224;2023-06-14T19:48:08;3.85;;;2.30;;
38318;SDS011;24121;53.536;10.224;2023-06-14T19:50:33;2.63;;;2.22;;
38318;SDS011;24121;53.536;10.224;2023-06-14T19:52:59;3.60;;;2.20;;
38318;SDS011;24121;53.536;10.224;2023-06-14T19:55:25;3.95;;;1.98;;
38318;SDS011;24121;53.536;10.224;2023-06-14T19:57:50;4.00;;;1.88;;
38318;SDS011;24121;53.536;10.224;2023-06-14T20:00:16;4.32;;;2.30;;
38318;SDS011;24121;53.536;10.224;2023-06-14T20:02:42;3.03;;;2.10;;
38318;SDS011;24121;53.536;10.224;2023-06-14T20:05:07;7.40;;;2.72;;
38318;SDS011;24121;53.536;10.224;2023-06-14T20:07:33;4.00;;;2.00;;
38318;SDS011;24121;53.536;10.224;2023-06-14T20:09:58;5.70;;;2.13;;
38318;SDS011;24121;53.536;10.224;2023-06-14T20:12:23;7.57;;;2.40;;
38318;SDS011;24121;53.536;10.224;2023-06-14T20:14:49;4.15;;;2.05;;
38318;SDS011;24121;53.536;10.224;2023-06-14T20:17:15;9.32;;;2.10;;
38318;SDS011;24121;53.536;10.224;2023-06-14T20:19:40;4.68;;;1.95;;
38318;SDS011;24121;53.536;10.224;2023-06-14T20:22:06;5.75;;;2.10;;
38318;SDS011;24121;53.536;10.224;2023-06-14T20:24:31;5.88;;;2.17;;
38318;SDS011;24121;53.536;10.224;2023-06-14T20:26:56;6.05;;;2.40;;
38318;SDS011;24121;53.536;10.224;2023-06-14T20:29:22;3.25;;;2.10;;
38318;SDS011;24121;53.536;10.224;2023-06-14T20:31:47;2.70;;;2.00;;
38318;SDS011;24121;53.536;10.224;2023-06-14T20:34:13;3.65;;;2.25;;
38318;SDS011;24121;53.536;10.224;2023-06-14T20:36:38;3.95;;;2.30;;
38318;SDS011;24121;53.536;10.224;2023-06-14T20:39:04;5.32;;;2.30;;
38318;SDS011;24121;53.536;10.224;2023-06-14T20:41:30;3.97;;;2.13;;
38318;SDS011;24121;53.536;10.224;2023-06-14T20:43:55;4.18;;;2.55;;
38318;SDS011;24121;53.536;10.224;2023-06-14T20:46:22;3.75;;;1.85;;
38318;SDS011;24121;53.536;10.224;2023-06-14T20:48:52;3.08;;;1.95;;
38318;SDS011;24121;53.536;10.224;2023-06-14T20:51:18;3.65;;;2.20;;
38318;SDS011;24121;53.536;10.224;2023-06-14T20:53:43;2.83;;;1.85;;
38318;SDS011;24121;53.536;10.224;2023-06-14T20:56:08;4.07;;;2.30;;
38318;SDS011;24121;53.536;10.224;2023-06-14T20:58:35;5.15;;;2.20;;
38318;SDS011;24121;53.536;10.224;2023-06-14T21:01:00;3.50;;;2.10;;
38318;SDS011;24121;53.536;10.224;2023-06-14T21:03:26;4.88;;;1.90;;
38318;SDS011;24121;53.536;10.224;2023-06-14T21:05:52;4.30;;;2.40;;
38318;SDS011;24121;53.536;10.224;2023-06-14T21:08:18;4.68;;;2.40;;
38318;SDS011;24121;53.536;10.224;2023-06-14T21:10:43;6.90;;;2.20;;
38318;SDS011;24121;53.536;10.224;2023-06-14T21:13:09;3.67;;;1.90;;
38318;SDS011;24121;53.536;10.224;2023-06-14T21:15:35;3.40;;;2.08;;
38318;SDS011;24121;53.536;10.224;2023-06-14T21:18:00;3.22;;;2.20;;
38318;SDS011;24121;53.536;10.224;2023-06-14T21:20:25;3.63;;;2.63;;
38318;SDS011;24121;53.536;10.224;2023-06-14T21:22:51;7.35;;;3.15;;
38318;SDS011;24121;53.536;10.224;2023-06-14T21:25:16;7.50;;;2.47;;
38318;SDS011;24121;53.536;10.224;2023-06-14T21:27:43;8.95;;;3.08;;
38318;SDS011;24121;53.536;10.224;2023-06-14T21:30:08;4.40;;;2.58;;
38318;SDS011;24121;53.536;10.224;2023-06-14T21:32:34;4.68;;;2.17;;
38318;SDS011;24121;53.536;10.224;2023-06-14T21:35:00;5.07;;;2.30;;
38318;SDS011;24121;53.536;10.224;2023-06-14T21:37:29;6.78;;;2.95;;
38318;SDS011;24121;53.536;10.224;2023-06-14T21:39:55;3.17;;;2.40;;
38318;SDS011;24121;53.536;10.224;2023-06-14T21:42:20;4.20;;;2.30;;
38318;SDS011;24121;53.536;10.224;2023-06-14T21:44:45;5.18;;;2.53;;
38318;SDS011;24121;53.536;10.224;2023-06-14T21:47:11;4.57;;;2.50;;
38318;SDS011;24121;53.536;10.224;2023-06-14T21:49:38;6.13;;;2.30;;